Driscoll, Texas
Current Conditions -  °F | °C
As of 2:35 PM on Thursday 20 Nov 2014 (Local Time) from KRBO Reporting Station
Overcast Overcast  
Wind Chill: 73°   Ceiling: 2800
Heat Index: 73°   Visibility: 10mi
Dew Point: 65°   Wind: 17mph
Humidity: 78%   Direction: 160°SSE
Pressure: 30.03"   Gusts: NA
Location:  27.67°N, 97.75°W
Report Text: KRBO 202035Z AUTO 16015KT 10SM SCT019 BKN028 OVC035 23/19 A3003 RMK AO2 T02250185
Loading
Personal Weather Stations






























Interactive Weather Map New forecast layout! Learn more

10-Day Weather Forecast

Advertisements
Track Severe Weather on mobile